Time;durP1;ratioP1;P1;durP2;ratioP2;P2;SDS_P1;SDS_P2;PMS_P1;PMS_P2;Temp;Humidity;BMP_temperature;BMP_pressure;BME280_temperature;BME280_humidity;BME280_pressure;Samples;Min_cycle;Max_cycle;Signal;HPM_P1;HPM_P2
2022/04/03 00:01:18;;;;;;;22.00;13.65;;;;;;;-0.12;100.00;99464.81;5570478;32;34059;-70
2022/04/03 00:04:21;;;;;;;19.83;13.05;;;;;;;-0.15;100.00;99462.47;5556829;32;34719;-69
2022/04/03 00:07:23;;;;;;;22.05;12.60;;;;;;;-0.19;100.00;99465.41;5570348;32;34514;-69
2022/04/03 00:10:26;;;;;;;24.20;13.60;;;;;;;-0.31;100.00;99472.44;5570698;32;34341;-69
2022/04/03 00:13:29;;;;;;;23.62;13.98;;;;;;;-0.22;100.00;99473.47;5570498;32;34620;-69
2022/04/03 00:16:32;;;;;;;20.65;11.75;;;;;;;-0.20;100.00;99476.81;5570349;32;33989;-70
2022/04/03 00:19:35;;;;;;;17.58;10.98;;;;;;;-0.16;100.00;99481.66;5570337;32;33894;-69
2022/04/03 00:22:38;;;;;;;20.00;11.80;;;;;;;-0.09;100.00;99477.59;5570393;32;34668;-69
2022/04/03 00:25:41;;;;;;;19.62;12.52;;;;;;;-0.03;100.00;99486.72;5570599;32;34742;-69
2022/04/03 00:28:44;;;;;;;20.23;12.48;;;;;;;0.10;100.00;99492.59;5570108;32;34157;-69
2022/04/03 00:31:47;;;;;;;20.17;10.98;;;;;;;0.04;100.00;99495.72;5570595;32;34079;-69
2022/04/03 00:34:51;;;;;;;19.98;11.82;;;;;;;-0.01;100.00;99493.47;5570501;32;34028;-69
2022/04/03 00:38:01;;;;;;;18.77;10.98;;;;;;;-0.07;100.00;99493.97;5570116;32;34181;-68
2022/04/03 00:41:05;;;;;;;19.48;11.10;;;;;;;-0.03;100.00;99491.94;5570500;32;33944;-69
2022/04/03 00:44:07;;;;;;;16.40;10.55;;;;;;;0.04;100.00;99505.31;5570584;32;34551;-69
2022/04/03 00:47:12;;;;;;;17.70;10.25;;;;;;;-0.06;100.00;99500.84;5570187;32;35249;-68
2022/04/03 00:50:15;;;;;;;19.15;10.85;;;;;;;-0.16;100.00;99504.28;5556222;32;34672;-68
2022/04/03 00:53:19;;;;;;;20.35;12.00;;;;;;;-0.21;100.00;99512.47;5556530;32;33897;-68
2022/04/03 00:56:22;;;;;;;18.05;12.13;;;;;;;-0.39;100.00;99513.09;5570114;32;35163;-69
2022/04/03 00:59:25;;;;;;;22.35;13.15;;;;;;;-0.44;100.00;99510.84;5569927;32;33954;-69
2022/04/03 01:02:28;;;;;;;22.55;13.15;;;;;;;-0.62;100.00;99507.88;5556207;32;34689;-70
2022/04/03 01:05:31;;;;;;;23.12;13.70;;;;;;;-0.67;100.00;99507.38;5569891;32;33919;-70
2022/04/03 01:08:33;;;;;;;23.92;13.65;;;;;;;-0.61;100.00;99517.34;5570085;32;34103;-70
2022/04/03 01:11:38;;;;;;;21.58;12.90;;;;;;;-0.60;100.00;99515.56;5556321;32;34667;-70
2022/04/03 01:14:42;;;;;;;21.45;12.23;;;;;;;-0.64;100.00;99515.00;5570120;32;34614;-71
2022/04/03 01:17:45;;;;;;;22.15;13.23;;;;;;;-0.56;100.00;99519.59;5569742;32;33950;-71
2022/04/03 01:20:48;;;;;;;21.62;13.13;;;;;;;-0.53;100.00;99522.78;5569749;32;34340;-71
2022/04/03 01:23:54;;;;;;;20.77;13.02;;;;;;;-0.39;100.00;99524.34;5569804;32;33883;-71
2022/04/03 01:26:57;;;;;;;19.90;12.55;;;;;;;-0.46;100.00;99523.97;5569616;32;33997;-71
2022/04/03 01:30:00;;;;;;;21.23;12.35;;;;;;;-0.50;100.00;99530.38;5569408;32;34387;-71
2022/04/03 01:33:03;;;;;;;20.25;11.80;;;;;;;-0.43;100.00;99536.75;5569581;32;33895;-70
2022/04/03 01:36:06;;;;;;;17.23;10.38;;;;;;;-0.48;100.00;99535.44;5569395;32;33954;-71
2022/04/03 01:39:12;;;;;;;18.42;11.82;;;;;;;-0.50;100.00;99543.41;5569366;32;34573;-71
2022/04/03 01:42:16;;;;;;;25.37;13.32;;;;;;;-0.41;100.00;99546.25;5569377;32;33864;-71
2022/04/03 01:45:20;;;;;;;20.35;11.80;;;;;;;-0.40;100.00;99553.94;5569298;32;33998;-70
2022/04/03 01:48:23;;;;;;;20.12;12.00;;;;;;;-0.43;100.00;99555.00;5569101;32;34321;-70
2022/04/03 01:51:27;;;;;;;19.95;10.95;;;;;;;-0.44;100.00;99547.31;5572379;32;34307;-71
2022/04/03 01:54:30;;;;;;;18.87;10.05;;;;;;;-0.43;100.00;99541.97;5575732;32;34076;-70
2022/04/03 01:57:32;;;;;;;14.35;7.62;;;;;;;-0.39;100.00;99549.56;5575611;32;33943;-70
2022/04/03 02:00:37;;;;;;;12.75;7.80;;;;;;;-0.34;100.00;99550.87;5575610;32;34089;-71
2022/04/03 02:03:40;;;;;;;11.77;7.53;;;;;;;-0.26;100.00;99548.50;5575484;32;34008;-71
2022/04/03 02:06:43;;;;;;;9.68;6.47;;;;;;;-0.25;100.00;99552.75;5575492;32;34609;-70
2022/04/03 02:09:46;;;;;;;10.20;6.55;;;;;;;-0.21;100.00;99554.19;5561581;32;34800;-70
2022/04/03 02:12:48;;;;;;;10.52;6.18;;;;;;;-0.21;100.00;99561.16;5575373;32;34045;-70
2022/04/03 02:15:51;;;;;;;11.45;7.40;;;;;;;-0.18;100.00;99558.31;5575298;32;34373;-70
2022/04/03 02:18:54;;;;;;;11.27;7.15;;;;;;;-0.22;100.00;99564.72;5575338;32;35101;-69
2022/04/03 02:21:56;;;;;;;9.70;6.40;;;;;;;-0.16;100.00;99574.66;5575155;32;34365;-70
2022/04/03 02:24:59;;;;;;;12.45;6.45;;;;;;;-0.18;100.00;99572.16;5575560;32;34009;-70
2022/04/03 02:28:03;;;;;;;8.52;6.00;;;;;;;-0.23;100.00;99578.69;5570674;32;153850;-73
2022/04/03 02:31:06;;;;;;;8.32;5.78;;;;;;;-0.23;100.00;99582.13;5561285;32;34076;-69
2022/04/03 02:34:10;;;;;;;9.05;6.03;;;;;;;-0.21;100.00;99592.44;5575062;32;34670;-69
2022/04/03 02:37:14;;;;;;;9.27;6.07;;;;;;;-0.22;100.00;99583.78;5574959;32;34105;-69
2022/04/03 02:40:18;;;;;;;11.35;6.68;;;;;;;-0.21;100.00;99589.84;5574771;32;34906;-68
2022/04/03 02:43:20;;;;;;;8.38;5.40;;;;;;;-0.19;100.00;99598.34;5574859;32;34600;-68
2022/04/03 02:46:23;;;;;;;9.25;5.97;;;;;;;-0.19;100.00;99599.19;5561252;32;33532;-68
2022/04/03 02:49:26;;;;;;;7.32;5.25;;;;;;;-0.13;100.00;99597.87;5560912;32;33888;-67
2022/04/03 02:52:29;;;;;;;8.80;5.47;;;;;;;-0.12;100.00;99600.38;5561089;32;34605;-68
2022/04/03 02:55:32;;;;;;;9.93;5.87;;;;;;;-0.21;100.00;99602.88;5574615;32;34052;-68
2022/04/03 02:58:35;;;;;;;9.15;6.05;;;;;;;-0.23;100.00;99617.78;5574917;32;33983;-67
2022/04/03 03:01:37;;;;;;;8.95;6.00;;;;;;;-0.20;100.00;99612.34;5573763;32;34284;-68
2022/04/03 03:04:40;;;;;;;8.77;5.70;;;;;;;-0.13;100.00;99616.12;5570259;32;34407;-68
2022/04/03 03:07:47;;;;;;;10.02;6.28;;;;;;;-0.17;100.00;99615.53;5570994;32;34083;-68
2022/04/03 03:10:50;;;;;;;9.50;6.37;;;;;;;-0.22;100.00;99616.84;5571018;32;34271;-67
2022/04/03 03:13:52;;;;;;;10.48;6.60;;;;;;;-0.18;100.00;99626.06;5571219;32;34579;-68
2022/04/03 03:16:56;;;;;;;10.20;6.32;;;;;;;-0.11;100.00;99633.31;5570920;32;33914;-68
2022/04/03 03:19:58;;;;;;;9.98;6.22;;;;;;;-0.09;100.00;99634.00;5570841;32;33916;-67
2022/04/03 03:23:04;;;;;;;10.18;6.72;;;;;;;-0.12;100.00;99630.81;5570844;32;33900;-67
2022/04/03 03:26:07;;;;;;;10.27;6.82;;;;;;;-0.18;100.00;99634.72;5570897;32;33989;-68
2022/04/03 03:29:10;;;;;;;10.98;6.87;;;;;;;-0.22;100.00;99638.53;5570448;32;34276;-68
2022/04/03 03:32:13;;;;;;;12.25;7.57;;;;;;;-0.20;100.00;99651.44;5570827;32;34032;-68
2022/04/03 03:35:16;;;;;;;10.77;7.07;;;;;;;-0.30;100.00;99660.91;5556988;32;34225;-68
2022/04/03 03:38:19;;;;;;;11.55;6.82;;;;;;;-0.26;100.00;99652.75;5570722;32;34114;-68
2022/04/03 03:41:22;;;;;;;12.57;6.95;;;;;;;-0.16;100.00;99666.72;5570560;32;34345;-68
2022/04/03 03:44:25;;;;;;;10.93;7.15;;;;;;;-0.17;100.00;99670.28;5570964;32;34186;-68
2022/04/03 03:47:28;;;;;;;10.38;6.75;;;;;;;-0.21;100.00;99660.22;5570516;32;33868;-68
2022/04/03 03:50:31;;;;;;;10.98;6.65;;;;;;;-0.25;100.00;99667.44;5570411;32;33995;-68
2022/04/03 03:53:34;;;;;;;9.75;6.30;;;;;;;-0.23;100.00;99668.13;5570467;32;34548;-68
2022/04/03 03:56:37;;;;;;;11.73;6.60;;;;;;;-0.10;100.00;99673.25;5570536;32;34654;-67
2022/04/03 03:59:40;;;;;;;9.85;6.62;;;;;;;-0.15;100.00;99680.59;5570414;32;34059;-67
2022/04/03 04:02:42;;;;;;;11.93;6.65;;;;;;;-0.09;100.00;99685.31;5570416;32;33858;-67
2022/04/03 04:05:45;;;;;;;9.98;6.25;;;;;;;-0.10;100.00;99691.50;5570855;32;33935;-68
2022/04/03 04:08:48;;;;;;;9.60;6.60;;;;;;;-0.16;100.00;99694.56;5570414;32;34867;-68
2022/04/03 04:11:51;;;;;;;9.43;6.37;;;;;;;-0.13;100.00;99696.94;5570257;32;34951;-68
2022/04/03 04:14:53;;;;;;;11.15;6.78;;;;;;;-0.21;100.00;99702.75;5569958;32;33909;-68
2022/04/03 04:17:56;;;;;;;9.73;6.32;;;;;;;-0.21;100.00;99704.53;5556533;32;34236;-68
2022/04/03 04:21:02;;;;;;;10.15;6.40;;;;;;;-0.30;100.00;99708.66;5570193;32;34079;-68
2022/04/03 04:24:05;;;;;;;10.55;6.32;;;;;;;-0.34;100.00;99712.44;5570223;32;33890;-68
2022/04/03 04:27:08;;;;;;;11.43;6.97;;;;;;;-0.31;100.00;99712.19;5570614;32;34354;-68
2022/04/03 04:30:13;;;;;;;11.02;6.35;;;;;;;-0.30;100.00;99724.28;5570033;32;34330;-68
2022/04/03 04:33:16;;;;;;;8.70;6.35;;;;;;;-0.20;100.00;99725.25;5543770;32;34351;-68
2022/04/03 04:36:19;;;;;;;10.07;6.78;;;;;;;-0.18;100.00;99732.94;5570225;32;34068;-68
2022/04/03 04:39:21;;;;;;;9.30;6.82;;;;;;;-0.17;100.00;99738.06;5570055;32;34620;-68
2022/04/03 04:42:24;;;;;;;10.55;6.60;;;;;;;-0.21;100.00;99749.66;5570442;32;34749;-68
2022/04/03 04:45:27;;;;;;;9.10;6.32;;;;;;;-0.21;100.00;99754.03;5570060;32;34051;-68
2022/04/03 04:48:30;;;;;;;10.55;7.05;;;;;;;-0.21;100.00;99762.69;5569795;31;34172;-68
2022/04/03 04:51:33;;;;;;;10.48;6.90;;;;;;;-0.17;100.00;99764.13;5570406;32;34717;-68
2022/04/03 04:54:36;;;;;;;9.13;6.18;;;;;;;-0.19;100.00;99767.78;5569870;32;33973;-67
2022/04/03 04:57:39;;;;;;;10.27;6.55;;;;;;;-0.08;100.00;99763.44;5569782;32;34668;-67
2022/04/03 05:00:42;;;;;;;10.05;6.72;;;;;;;0.01;100.00;99764.50;5569909;32;34310;-67
2022/04/03 05:03:44;;;;;;;8.85;5.95;;;;;;;0.01;100.00;99772.31;5569856;32;33888;-67
2022/04/03 05:06:47;;;;;;;13.15;6.30;;;;;;;0.03;100.00;99780.03;5569574;32;33929;-67
2022/04/03 05:09:51;;;;;;;8.93;6.00;;;;;;;0.06;100.00;99783.25;5569547;32;34403;-68
2022/04/03 05:12:54;;;;;;;9.90;6.10;;;;;;;0.13;100.00;99787.06;5569678;32;34442;-67
2022/04/03 05:15:56;;;;;;;10.63;6.65;;;;;;;0.08;100.00;99790.97;5569915;32;34266;-68
2022/04/03 05:19:00;;;;;;;9.10;6.03;;;;;;;-0.01;100.00;99793.31;5555779;32;33982;-68
2022/04/03 05:22:02;;;;;;;10.88;6.87;;;;;;;0.14;100.00;99800.94;5569646;32;33891;-68
2022/04/03 05:25:06;;;;;;;9.88;6.07;;;;;;;0.23;100.00;99798.47;5568846;32;34483;-68
2022/04/03 05:28:09;;;;;;;10.90;6.68;;;;;;;0.14;100.00;99806.16;5569443;32;34677;-67
2022/04/03 05:31:12;;;;;;;11.90;6.80;;;;;;;0.05;100.00;99809.47;5555812;32;33992;-68
2022/04/03 05:34:15;;;;;;;10.85;6.62;;;;;;;0.18;100.00;99818.84;5569589;32;34621;-68
2022/04/03 05:37:19;;;;;;;8.63;5.20;;;;;;;0.28;100.00;99825.03;5555792;32;33981;-68
2022/04/03 05:40:22;;;;;;;9.45;5.30;;;;;;;0.32;100.00;99820.41;5569433;32;34728;-68
2022/04/03 05:43:25;;;;;;;8.15;5.82;;;;;;;0.25;100.00;99825.25;5569264;32;35400;-68
2022/04/03 05:46:29;;;;;;;8.73;5.10;;;;;;;0.43;100.00;99828.25;5569003;32;34075;-68
2022/04/03 05:49:32;;;;;;;6.03;4.35;;;;;;;0.60;100.00;99834.78;5555356;32;35296;-68
2022/04/03 05:52:43;;;;;;;6.68;4.35;;;;;;;0.86;100.00;99838.81;5569051;32;33955;-68
2022/04/03 05:55:50;;;;;;;7.68;3.90;;;;;;;0.85;100.00;99838.00;5569160;32;34047;-68
2022/04/03 05:58:52;;;;;;;5.80;4.10;;;;;;;0.84;100.00;99856.37;5568639;32;33991;-68
2022/04/03 06:01:55;;;;;;;7.50;4.35;;;;;;;0.68;100.00;99851.50;5568899;32;34300;-68
2022/04/03 06:04:58;;;;;;;6.85;4.50;;;;;;;0.81;100.00;99849.63;5569164;32;34548;-68
2022/04/03 06:08:02;;;;;;;7.30;3.85;;;;;;;0.90;100.00;99857.69;5568496;32;34592;-69
2022/04/03 06:11:05;;;;;;;5.78;3.33;;;;;;;1.05;100.00;99862.56;5555049;32;34718;-69
2022/04/03 06:14:07;;;;;;;5.22;3.55;;;;;;;0.80;100.00;99861.03;5568644;32;34815;-69
2022/04/03 06:17:10;;;;;;;4.03;3.00;;;;;;;0.97;100.00;99862.31;5568704;32;33905;-68
2022/04/03 06:20:13;;;;;;;4.32;3.15;;;;;;;1.11;100.00;99869.91;5554947;32;34627;-68
2022/04/03 06:23:19;;;;;;;5.62;3.40;;;;;;;1.17;100.00;99872.03;5568369;32;33904;-69
2022/04/03 06:26:21;;;;;;;5.10;3.40;;;;;;;1.35;100.00;99879.37;5568383;32;34429;-69
2022/04/03 06:29:24;;;;;;;7.50;4.65;;;;;;;1.31;100.00;99882.22;5568394;32;33887;-69
2022/04/03 06:32:29;;;;;;;5.85;4.20;;;;;;;1.01;100.00;99889.03;5567970;32;34357;-69
2022/04/03 06:35:32;;;;;;;6.65;4.28;;;;;;;1.09;100.00;99887.47;5567896;32;34692;-68
2022/04/03 06:38:35;;;;;;;4.60;3.67;;;;;;;1.01;100.00;99897.72;5569909;32;34069;-69
2022/04/03 06:41:38;;;;;;;7.80;4.60;;;;;;;0.82;100.00;99893.03;5570659;32;33999;-68
2022/04/03 06:44:40;;;;;;;8.27;4.50;;;;;;;0.99;100.00;99907.44;5570611;32;34132;-68
2022/04/03 06:47:44;;;;;;;6.93;4.65;;;;;;;1.03;100.00;99910.63;5570849;32;33914;-68
2022/04/03 06:50:47;;;;;;;7.12;4.62;;;;;;;0.97;100.00;99914.53;5570550;32;35272;-68
2022/04/03 06:53:51;;;;;;;7.47;5.40;;;;;;;1.04;100.00;99918.34;5556990;32;33981;-68
2022/04/03 06:56:54;;;;;;;8.60;6.12;;;;;;;1.14;100.00;99923.69;5557024;32;35209;-69
2022/04/03 06:59:57;;;;;;;9.10;6.18;;;;;;;1.09;100.00;99929.28;5557211;32;34362;-68
2022/04/03 07:03:00;;;;;;;9.40;6.22;;;;;;;1.26;100.00;99930.56;5570633;32;34048;-69
2022/04/03 07:06:03;;;;;;;11.32;6.80;;;;;;;1.20;100.00;99931.91;5570754;32;34668;-68
2022/04/03 07:09:06;;;;;;;10.98;7.70;;;;;;;1.12;100.00;99931.63;5570766;32;34005;-69
2022/04/03 07:12:10;;;;;;;11.38;7.75;;;;;;;1.22;100.00;99940.44;5570494;32;34558;-68
2022/04/03 07:15:13;;;;;;;10.55;7.57;;;;;;;1.30;100.00;99945.06;5570501;32;34908;-69
2022/04/03 07:18:16;;;;;;;11.43;6.85;;;;;;;1.36;100.00;99954.19;5569934;32;34014;-68
2022/04/03 07:21:20;;;;;;;12.07;7.20;;;;;;;1.45;100.00;99961.34;5570027;32;34726;-68
2022/04/03 07:24:23;;;;;;;12.35;8.43;;;;;;;1.52;100.00;99975.59;5569812;32;34808;-68
2022/04/03 07:27:27;;;;;;;11.73;7.20;;;;;;;1.57;100.00;99960.38;5556784;32;35256;-68
2022/04/03 07:30:30;;;;;;;13.70;8.43;;;;;;;1.61;100.00;99980.09;5570233;32;34126;-68
2022/04/03 07:33:33;;;;;;;11.32;7.68;;;;;;;1.60;100.00;99981.03;5570545;32;34717;-67
2022/04/03 07:36:36;;;;;;;13.05;8.32;;;;;;;1.60;100.00;99991.47;5570477;32;34686;-67
2022/04/03 07:39:38;;;;;;;15.80;8.10;;;;;;;1.59;100.00;99993.28;5570247;32;34690;-67
2022/04/03 07:42:41;;;;;;;13.95;7.97;;;;;;;1.38;100.00;100005.41;5570071;32;33880;-67
2022/04/03 07:45:45;;;;;;;12.23;8.40;;;;;;;1.61;100.00;100006.22;5569802;32;34812;-68
2022/04/03 07:48:48;;;;;;;14.98;9.02;;;;;;;1.69;100.00;100009.09;5569313;32;34611;-68
2022/04/03 07:51:51;;;;;;;15.63;9.25;;;;;;;1.80;100.00;100016.06;5570244;32;34047;-68
2022/04/03 07:54:55;;;;;;;14.75;9.68;;;;;;;2.03;100.00;100013.28;5570059;32;34603;-67
2022/04/03 07:57:57;;;;;;;16.92;10.10;;;;;;;2.15;100.00;100033.25;5569834;32;34618;-68
2022/04/03 08:01:01;;;;;;;19.10;10.10;;;;;;;2.12;100.00;100037.91;5569692;32;35334;-68
2022/04/03 08:04:04;;;;;;;17.83;11.50;;;;;;;2.02;100.00;100042.22;5570201;32;33958;-68
2022/04/03 08:07:07;;;;;;;18.27;12.15;;;;;;;2.11;100.00;100051.94;5569811;32;34607;-67
2022/04/03 08:10:13;;;;;;;24.35;14.45;;;;;;;1.69;100.00;100046.50;5569815;32;34304;-67
2022/04/03 08:13:16;;;;;;;21.73;13.93;;;;;;;1.66;100.00;100056.38;5555582;32;33937;-68
2022/04/03 08:16:19;;;;;;;25.17;14.77;;;;;;;1.72;100.00;100055.91;5569407;32;34154;-67
2022/04/03 08:19:22;;;;;;;24.55;14.90;;;;;;;1.70;100.00;100055.19;5569559;32;34017;-68
2022/04/03 08:22:25;;;;;;;27.00;15.85;;;;;;;1.55;100.00;100051.97;5570143;32;35316;-67
2022/04/03 08:25:28;;;;;;;28.58;15.32;;;;;;;1.63;100.00;100065.31;5570221;32;33998;-68
2022/04/03 08:28:31;;;;;;;24.17;14.02;;;;;;;1.62;100.00;100049.72;5569656;32;34789;-69
2022/04/03 08:31:34;;;;;;;22.75;13.77;;;;;;;1.66;100.00;100053.75;5569240;32;34201;-67
2022/04/03 08:34:37;;;;;;;23.20;14.38;;;;;;;1.85;100.00;100061.84;5569262;32;34292;-68
2022/04/03 08:37:47;;;;;;;21.73;13.25;;;;;;;2.05;100.00;100068.97;5570211;32;34358;-68
2022/04/03 08:40:53;;;;;;;27.58;12.65;;;;;;;2.12;100.00;100069.31;5569885;32;34634;-67
2022/04/03 08:43:56;;;;;;;19.80;11.63;;;;;;;2.68;100.00;100059.50;5569699;32;34016;-67
2022/04/03 08:47:01;;;;;;;17.87;11.20;;;;;;;3.01;100.00;100066.38;5569229;32;34834;-67
2022/04/03 08:50:04;;;;;;;25.00;11.30;;;;;;;3.41;100.00;100069.09;5569636;32;34239;-67
2022/04/03 08:53:08;;;;;;;19.17;10.48;;;;;;;4.09;100.00;100076.31;5569080;32;34705;-67
2022/04/03 08:56:11;;;;;;;17.45;9.82;;;;;;;3.97;100.00;100081.81;5569172;32;33949;-67
2022/04/03 08:59:14;;;;;;;19.10;10.38;;;;;;;4.07;99.28;100093.12;5568694;32;33931;-68
2022/04/03 09:02:18;;;;;;;19.85;9.18;;;;;;;4.97;90.42;100092.03;5568222;32;34025;-67
2022/04/03 09:05:21;;;;;;;14.68;7.55;;;;;;;4.43;93.41;100092.56;5569487;32;34585;-67
2022/04/03 09:08:36;;;;;;;22.05;10.52;;;;;;;3.63;97.80;100099.59;5569998;32;34014;-67
2022/04/03 09:11:39;;;;;;;20.48;10.18;;;;;;;3.86;100.00;100103.72;5555688;32;34090;-67
2022/04/03 09:14:51;;;;;;;15.68;9.18;;;;;;;3.86;97.70;100106.34;5569169;32;34336;-68
2022/04/03 09:17:56;;;;;;;20.70;10.75;;;;;;;3.96;98.87;100106.38;5555076;32;34042;-67
2022/04/03 09:20:59;;;;;;;19.55;9.55;;;;;;;3.64;100.00;100107.31;5569041;32;34343;-68
2022/04/03 09:24:11;;;;;;;15.80;9.60;;;;;;;4.43;100.00;100110.09;5569566;32;33919;-68
2022/04/03 09:27:15;;;;;;;16.05;9.13;;;;;;;4.76;93.98;100115.81;5569309;32;33947;-67
2022/04/03 09:30:28;;;;;;;17.58;9.13;;;;;;;4.26;90.83;100111.59;5568774;32;34210;-67
2022/04/03 09:33:31;;;;;;;17.90;9.13;;;;;;;3.90;95.54;100116.44;5568221;32;34549;-68
2022/04/03 09:36:35;;;;;;;17.02;9.52;;;;;;;3.94;94.43;100125.69;5568863;32;34602;-68
2022/04/03 09:39:38;;;;;;;12.35;8.18;;;;;;;4.34;93.51;100122.25;5569108;32;33927;-67
2022/04/03 09:42:41;;;;;;;21.35;8.00;;;;;;;4.41;86.92;100127.78;5568597;32;34772;-67
2022/04/03 09:46:03;;;;;;;14.93;8.00;;;;;;;4.14;86.08;100133.66;5568489;32;34182;-67
2022/04/03 09:49:22;;;;;;;14.80;8.77;;;;;;;4.19;86.04;100139.34;5569166;32;34927;-67
2022/04/03 09:52:45;;;;;;;22.40;9.68;;;;;;;4.24;86.36;100137.16;5568163;32;34405;-68
2022/04/03 09:55:48;;;;;;;13.75;8.32;;;;;;;4.46;87.31;100133.47;5568546;32;34421;-67
2022/04/03 09:58:51;;;;;;;16.55;9.32;;;;;;;4.28;84.80;100138.53;5554831;32;34760;-68
2022/04/03 10:01:57;;;;;;;12.52;7.65;;;;;;;4.61;87.04;100143.44;5568337;32;34058;-67
2022/04/03 10:05:01;;;;;;;13.98;8.57;;;;;;;4.72;85.05;100134.63;5567842;32;34382;-68
2022/04/03 10:08:05;;;;;;;16.30;8.35;;;;;;;4.74;82.62;100138.75;5568257;32;33951;-68
2022/04/03 10:11:08;;;;;;;18.80;8.70;;;;;;;4.47;79.42;100135.13;5568787;32;34088;-67
2022/04/03 10:14:11;;;;;;;15.40;8.15;;;;;;;4.84;81.02;100132.72;5570731;32;35154;-67
2022/04/03 10:17:16;;;;;;;14.65;8.52;;;;;;;4.52;80.05;100135.56;5571148;32;34090;-68
2022/04/03 10:20:21;;;;;;;12.30;7.72;;;;;;;4.60;80.49;100144.41;5570612;32;34274;-68
2022/04/03 10:23:27;;;;;;;16.37;8.27;;;;;;;4.58;79.51;100143.75;5571146;32;34731;-68
2022/04/03 10:26:35;;;;;;;17.20;8.98;;;;;;;4.58;79.62;100159.50;5556893;32;34081;-67
2022/04/03 10:29:40;;;;;;;14.80;8.63;;;;;;;4.67;80.19;100163.09;5570554;31;34001;-68
2022/04/03 10:32:59;;;;;;;12.18;7.40;;;;;;;5.08;76.21;100148.91;5570128;32;34615;-68
2022/04/03 10:36:09;;;;;;;16.00;7.95;;;;;;;5.34;74.39;100150.00;5569886;32;33937;-67
2022/04/03 10:39:11;;;;;;;15.80;8.07;;;;;;;5.35;76.06;100156.09;5555831;32;34604;-68
2022/04/03 10:42:25;;;;;;;14.90;7.90;;;;;;;5.35;74.81;100170.06;5570244;32;34482;-68
2022/04/03 10:45:46;;;;;;;14.95;8.02;;;;;;;5.37;73.00;100155.00;5570186;32;34104;-68
2022/04/03 10:48:49;;;;;;;15.25;7.80;;;;;;;5.39;71.93;100162.72;5570369;32;34805;-68
2022/04/03 10:52:00;;;;;;;14.52;7.28;;;;;;;5.72;72.93;100167.53;5569613;32;34451;-68
2022/04/03 10:55:23;;;;;;;11.35;6.53;;;;;;;6.61;70.29;100160.00;5569533;32;34375;-68
2022/04/03 10:58:38;;;;;;;12.10;7.00;;;;;;;7.19;62.91;100171.81;5570006;32;34382;-67
2022/04/03 11:01:42;;;;;;;11.77;6.97;;;;;;;6.59;64.28;100161.94;5570416;32;34194;-67
2022/04/03 11:04:45;;;;;;;12.52;6.95;;;;;;;6.50;64.66;100176.84;5557248;32;34159;-67
2022/04/03 11:07:49;;;;;;;17.33;6.78;;;;;;;6.66;65.54;100178.84;5570415;32;33909;-68
2022/04/03 11:11:07;;;;;;;15.98;7.25;;;;;;;7.22;62.60;100178.56;5570465;32;35464;-68
2022/04/03 11:14:30;;;;;;;11.55;6.70;;;;;;;7.87;59.47;100186.03;5569789;32;34521;-68
2022/04/03 11:17:53;;;;;;;11.00;6.82;;;;;;;7.25;60.86;100197.59;5569975;32;34543;-68
2022/04/03 11:21:11;;;;;;;10.50;7.18;;;;;;;6.83;58.74;100194.69;5569867;32;34081;-68
2022/04/03 11:24:15;;;;;;;13.25;6.62;;;;;;;6.54;60.62;100201.91;5568185;32;34586;-67
2022/04/03 11:27:18;;;;;;;12.85;5.53;;;;;;;6.41;61.91;100204.06;5569927;32;33987;-67
2022/04/03 11:30:21;;;;;;;9.35;5.68;;;;;;;6.95;58.27;100204.06;5570255;32;34877;-67
2022/04/03 11:33:26;;;;;;;11.02;6.10;;;;;;;6.89;59.28;100207.28;5556003;32;33929;-67
2022/04/03 11:36:30;;;;;;;14.82;6.65;;;;;;;6.41;60.20;100206.69;5570160;32;34542;-68
2022/04/03 11:39:37;;;;;;;16.40;6.32;;;;;;;6.92;58.44;100211.44;5569570;32;35167;-68
2022/04/03 11:42:40;;;;;;;12.15;5.18;;;;;;;6.45;60.38;100205.44;5569922;32;33433;-67
2022/04/03 11:45:56;;;;;;;10.68;5.53;;;;;;;7.36;57.33;100214.97;5570682;32;33432;-67
2022/04/03 11:48:59;;;;;;;10.88;5.68;;;;;;;7.58;57.25;100203.16;5570183;32;34117;-68
2022/04/03 11:52:09;;;;;;;11.52;5.75;;;;;;;8.92;52.66;100211.34;5570158;32;34580;-67
2022/04/03 11:55:11;;;;;;;10.82;6.12;;;;;;;7.97;55.91;100222.09;5569861;32;34199;-68
2022/04/03 11:58:14;;;;;;;10.25;6.00;;;;;;;7.83;54.43;100213.75;5570069;32;34625;-68
2022/04/03 12:01:29;;;;;;;9.23;5.47;;;;;;;7.55;55.30;100227.22;5570318;32;33959;-68
2022/04/03 12:04:37;;;;;;;9.63;5.55;;;;;;;7.72;54.72;100229.00;5570271;32;33989;-68
2022/04/03 12:07:48;;;;;;;9.60;5.37;;;;;;;8.33;51.34;100236.87;5570738;32;35267;-67
2022/04/03 12:10:52;;;;;;;9.32;5.43;;;;;;;8.27;52.14;100238.31;5570275;32;34093;-67
2022/04/03 12:13:57;;;;;;;11.15;5.40;;;;;;;8.13;52.74;100236.22;5570139;32;35177;-68
2022/04/03 12:17:02;;;;;;;12.27;5.97;;;;;;;7.23;53.96;100239.12;5569810;32;33949;-67
2022/04/03 12:20:10;;;;;;;9.50;5.57;;;;;;;7.73;53.42;100228.03;5570357;32;34588;-68
2022/04/03 12:23:14;;;;;;;11.38;6.12;;;;;;;7.64;52.61;100240.34;5570138;32;34277;-67
2022/04/03 12:26:17;;;;;;;8.55;5.20;;;;;;;7.56;53.31;100237.59;5569879;32;34435;-67
2022/04/03 12:29:22;;;;;;;12.70;5.55;;;;;;;7.98;52.63;100231.69;5569667;32;34217;-68
2022/04/03 12:32:25;;;;;;;9.63;5.22;;;;;;;9.52;47.60;100236.59;5570312;32;34199;-67
2022/04/03 12:35:30;;;;;;;9.90;5.78;;;;;;;9.39;48.50;100238.88;5569713;32;34026;-68
2022/04/03 12:38:52;;;;;;;9.13;5.30;;;;;;;11.38;44.53;100235.25;5558007;32;33933;-68
2022/04/03 12:42:08;;;;;;;8.82;5.30;;;;;;;11.80;42.79;100226.84;5569603;32;34552;-69
2022/04/03 12:45:20;;;;;;;8.13;5.35;;;;;;;13.45;38.29;100236.03;5569694;32;34082;-69
2022/04/03 12:48:23;;;;;;;9.05;5.45;;;;;;;14.58;35.33;100225.22;5555789;32;34656;-67
2022/04/03 12:51:26;;;;;;;8.73;5.82;;;;;;;13.32;36.51;100229.72;5569485;32;34641;-68
2022/04/03 12:54:42;;;;;;;10.35;4.90;;;;;;;13.91;37.25;100222.28;5569551;32;34716;-67
2022/04/03 13:01:15;;;;;;;9.10;5.57;;;;;;;12.89;37.26;100226.13;5569553;32;34761;-68
2022/04/03 13:04:31;;;;;;;9.15;5.82;;;;;;;12.96;38.67;100227.06;5569919;32;34685;-66
2022/04/03 13:07:34;;;;;;;8.45;5.25;;;;;;;13.87;35.09;100213.84;5569968;32;33884;-67
2022/04/03 13:10:58;;;;;;;8.98;5.90;;;;;;;13.97;34.80;100228.69;5569345;32;34659;-67
2022/04/03 13:14:25;;;;;;;11.02;5.93;;;;;;;11.82;39.36;100222.12;5569179;32;34123;-67
2022/04/03 13:17:27;;;;;;;9.27;5.65;;;;;;;9.87;41.83;100232.81;5568905;32;34551;-68
2022/04/03 13:20:31;;;;;;;6.75;4.97;;;;;;;7.90;45.64;100224.50;5569338;32;34554;-66
2022/04/03 13:23:34;;;;;;;7.72;4.72;;;;;;;8.45;45.33;100211.84;5569564;32;34032;-67
2022/04/03 13:26:37;;;;;;;10.75;5.65;;;;;;;8.29;44.26;100223.16;5568869;32;34715;-67
2022/04/03 13:29:40;;;;;;;8.65;5.68;;;;;;;7.86;46.37;100220.53;5569164;31;34088;-66
2022/04/03 13:32:45;;;;;;;12.75;5.50;;;;;;;8.02;44.36;100228.56;5555430;32;33958;-67
2022/04/03 13:35:48;;;;;;;7.72;4.97;;;;;;;10.74;40.04;100223.19;5569151;32;34011;-67
2022/04/03 13:38:51;;;;;;;8.35;5.35;;;;;;;13.04;35.45;100233.09;5569069;32;33925;-67
2022/04/03 13:41:55;;;;;;;7.32;4.82;;;;;;;10.24;40.57;100228.78;5568895;32;34207;-67
2022/04/03 13:44:58;;;;;;;7.53;5.30;;;;;;;9.79;41.41;100222.19;5542105;32;33880;-66
2022/04/03 13:48:01;;;;;;;8.77;5.62;;;;;;;12.22;36.45;100230.75;5567264;32;34703;-67
2022/04/03 13:51:05;;;;;;;7.50;4.97;;;;;;;13.35;34.15;100230.19;5555027;32;34284;-66
2022/04/03 13:54:10;;;;;;;9.35;4.85;;;;;;;13.46;34.86;100237.66;5568764;32;34408;-67
2022/04/03 13:57:14;;;;;;;7.22;4.87;;;;;;;10.13;38.43;100237.06;5568372;32;33928;-66
2022/04/03 14:00:17;;;;;;;12.00;5.20;;;;;;;8.61;43.67;100243.66;5568101;32;34856;-67
2022/04/03 14:03:20;;;;;;;11.98;5.43;;;;;;;7.63;45.09;100243.13;5568863;32;33972;-67
2022/04/03 14:06:24;;;;;;;8.43;4.68;;;;;;;9.59;43.21;100247.34;5568415;32;34000;-67
2022/04/03 14:09:26;;;;;;;11.23;5.40;;;;;;;10.17;40.06;100239.25;5568352;32;34788;-67
2022/04/03 14:12:29;;;;;;;9.60;5.32;;;;;;;11.08;38.90;100238.75;5568228;32;34644;-66
2022/04/03 14:15:34;;;;;;;10.18;5.15;;;;;;;10.41;41.18;100241.00;5568556;32;33949;-66
2022/04/03 14:18:38;;;;;;;10.00;4.82;;;;;;;11.68;37.29;100241.50;5554740;32;34092;-66